createdAt,value
2016-06-12T00:00:27.933Z,1003.91
2016-06-12T00:01:27.889Z,1003.94
2016-06-12T00:02:27.892Z,1003.91
2016-06-12T00:03:28.082Z,1003.95
2016-06-12T00:04:28.367Z,1003.92
2016-06-12T00:05:27.838Z,1003.95
2016-06-12T00:06:27.826Z,1003.96
2016-06-12T00:07:27.830Z,1003.95
2016-06-12T00:08:27.801Z,1003.9
2016-06-12T00:09:27.829Z,1003.89
2016-06-12T00:10:27.856Z,1003.92
2016-06-12T00:11:28.178Z,1003.85
2016-06-12T00:12:27.891Z,1003.87
2016-06-12T00:13:27.932Z,1003.83
2016-06-12T00:14:27.926Z,1003.9
2016-06-12T00:15:27.926Z,1003.8
2016-06-12T00:16:27.928Z,1003.81
2016-06-12T00:17:27.929Z,1003.82
2016-06-12T00:18:27.930Z,1003.87
2016-06-12T00:19:28.394Z,1003.8
2016-06-12T00:20:27.965Z,1003.82
2016-06-12T00:21:27.910Z,1003.85
2016-06-12T00:22:27.903Z,1003.8
2016-06-12T00:23:27.895Z,1003.82
2016-06-12T00:24:27.870Z,1003.87
2016-06-12T00:25:27.890Z,1003.85
2016-06-12T00:26:27.942Z,1003.85
2016-06-12T00:27:28.400Z,1003.85
2016-06-12T00:28:27.827Z,1003.81
2016-06-12T00:29:27.816Z,1003.8
2016-06-12T00:30:27.804Z,1003.81
2016-06-12T00:31:27.791Z,1003.82
2016-06-12T00:32:27.780Z,1003.78
2016-06-12T00:33:27.783Z,1003.77
2016-06-12T00:34:27.771Z,1003.76
2016-06-12T00:35:29.118Z,1003.73
2016-06-12T00:36:27.730Z,1003.73
2016-06-12T00:37:27.781Z,1003.73
2016-06-12T00:38:27.784Z,1003.68
2016-06-12T00:39:27.693Z,1003.68
2016-06-12T00:40:27.682Z,1003.66
2016-06-12T00:41:27.653Z,1003.66
2016-06-12T00:42:27.657Z,1003.65
2016-06-12T00:43:28.440Z,1003.7
2016-06-12T00:44:27.631Z,1003.55
2016-06-12T00:45:27.634Z,1003.62
2016-06-12T00:46:27.590Z,1003.59
2016-06-12T00:47:27.593Z,1003.59
2016-06-12T00:48:27.565Z,1003.57
2016-06-12T00:49:27.631Z,1003.59
2016-06-12T00:50:27.619Z,1003.6
2016-06-12T00:51:27.527Z,1003.53
2016-06-12T00:52:27.516Z,1003.56
2016-06-12T00:53:27.502Z,1003.53
2016-06-12T00:54:27.490Z,1003.58
2016-06-12T00:55:27.478Z,1003.54
2016-06-12T00:56:27.464Z,1003.54
2016-06-12T00:57:27.437Z,1003.52
2016-06-12T00:58:27.440Z,1003.55
2016-06-12T00:59:28.568Z,1003.59
2016-06-12T01:00:27.477Z,1003.53
2016-06-12T01:01:27.402Z,1003.54
2016-06-12T01:02:27.468Z,1003.52
2016-06-12T01:03:27.361Z,1003.51
2016-06-12T01:04:27.443Z,1003.52
2016-06-12T01:05:27.430Z,1003.47
2016-06-12T01:06:27.355Z,1003.5
2016-06-12T01:07:28.608Z,1003.49
2016-06-12T01:08:27.315Z,1003.5
2016-06-12T01:09:27.285Z,1003.46
2016-06-12T01:10:27.289Z,1003.46
2016-06-12T01:11:27.246Z,1003.5
2016-06-12T01:12:27.248Z,1003.47
2016-06-12T01:13:27.314Z,1003.44
2016-06-12T01:14:27.239Z,1003.45
2016-06-12T01:15:27.617Z,1003.44
2016-06-12T01:16:27.277Z,1003.43
2016-06-12T01:17:27.248Z,1003.42
2016-06-12T01:18:27.158Z,1003.42
2016-06-12T01:19:27.160Z,1003.35
2016-06-12T01:20:27.148Z,1003.35
2016-06-12T01:21:27.135Z,1003.36
2016-06-12T01:22:27.122Z,1003.33
2016-06-12T01:23:27.673Z,1003.32
2016-06-12T01:24:27.082Z,1003.34
2016-06-12T01:25:27.101Z,1003.31
2016-06-12T01:26:27.120Z,1003.32
2016-06-12T01:27:27.045Z,1003.35
2016-06-12T01:28:27.032Z,1003.33
2016-06-12T01:29:27.097Z,1003.33
2016-06-12T01:30:27.007Z,1003.36
2016-06-12T01:31:26.995Z,1003.34
2016-06-12T01:32:27.013Z,1003.38
2016-06-12T01:33:27.047Z,1003.39
2016-06-12T01:34:27.020Z,1003.38
2016-06-12T01:35:27.601Z,1003.38
2016-06-12T01:36:26.932Z,1003.4
2016-06-12T01:37:26.982Z,1003.36
2016-06-12T01:38:26.907Z,1003.39
2016-06-12T01:39:26.894Z,1003.34
2016-06-12T01:40:26.897Z,1003.36
2016-06-12T01:41:26.854Z,1003.32
2016-06-12T01:42:26.903Z,1003.31
2016-06-12T01:43:26.844Z,1003.31
2016-06-12T01:44:26.831Z,1003.35
2016-06-12T01:45:26.913Z,1003.32
2016-06-12T01:46:26.807Z,1003.33
2016-06-12T01:47:26.793Z,1003.32
2016-06-12T01:48:26.781Z,1003.32
2016-06-12T01:49:26.753Z,1003.3
2016-06-12T01:50:26.819Z,1003.23
2016-06-12T01:51:26.744Z,1003.29
2016-06-12T01:52:26.715Z,1003.25
2016-06-12T01:53:26.781Z,1003.24
2016-06-12T01:54:26.784Z,1003.25
2016-06-12T01:55:26.694Z,1003.24
2016-06-12T01:56:26.680Z,1003.23
2016-06-12T01:57:26.652Z,1003.24
2016-06-12T01:58:26.641Z,1003.24
2016-06-12T01:59:26.611Z,1003.19
2016-06-12T02:00:26.631Z,1003.2
2016-06-12T02:01:26.618Z,1003.18
2016-06-12T02:02:26.590Z,1003.16
2016-06-12T02:03:26.577Z,1003.15
2016-06-12T02:04:26.580Z,1003.17
2016-06-12T02:05:26.552Z,1003.18
2016-06-12T02:06:26.540Z,1003.14
2016-06-12T02:07:26.808Z,1003.16
2016-06-12T02:08:26.530Z,1003.12
2016-06-12T02:09:26.503Z,1003.2
2016-06-12T02:10:26.490Z,1003.15
2016-06-12T02:11:26.477Z,1003.11
2016-06-12T02:12:26.449Z,1003.12
2016-06-12T02:13:26.421Z,1003.1
2016-06-12T02:14:26.408Z,1003.1
2016-06-12T02:15:26.396Z,1003.08
2016-06-12T02:16:26.383Z,1003.09
2016-06-12T02:17:26.370Z,1003.1
2016-06-12T02:18:26.358Z,1003.05
2016-06-12T02:19:26.361Z,1003.09
2016-06-12T02:20:26.348Z,1003.08
2016-06-12T02:21:26.336Z,1003.04
2016-06-12T02:22:26.324Z,1003.1
2016-06-12T02:23:26.295Z,1003.07
2016-06-12T02:24:26.313Z,1003.07
2016-06-12T02:25:26.316Z,1003.08
2016-06-12T02:26:26.258Z,1003.1
2016-06-12T02:27:26.245Z,1003.08
2016-06-12T02:28:26.247Z,1003.07
2016-06-12T02:29:26.236Z,1003.09
2016-06-12T02:30:26.223Z,1003.09
2016-06-12T02:31:26.210Z,1003.05
2016-06-12T02:32:26.198Z,1003.03
2016-06-12T02:33:26.202Z,1003.03
2016-06-12T02:34:26.172Z,1003.05
2016-06-12T02:35:26.175Z,1003.04
2016-06-12T02:36:26.132Z,1003.03
2016-06-12T02:37:26.119Z,1003
2016-06-12T02:38:26.092Z,1003.05
2016-06-12T02:39:26.079Z,1003.03
2016-06-12T02:40:26.066Z,1003.01
2016-06-12T02:41:26.068Z,1002.98
2016-06-12T02:42:26.041Z,1003
2016-06-12T02:43:26.044Z,1002.99
2016-06-12T02:44:26.016Z,1002.98
2016-06-12T02:45:26.003Z,1003
2016-06-12T02:46:25.991Z,1002.98
2016-06-12T02:47:25.978Z,1002.95
2016-06-12T02:48:25.965Z,1002.95
2016-06-12T02:49:25.953Z,1002.96
2016-06-12T02:50:25.940Z,1002.96
2016-06-12T02:51:25.928Z,1002.95
2016-06-12T02:52:25.932Z,1002.94
2016-06-12T02:53:25.918Z,1002.96
2016-06-12T02:54:25.890Z,1002.97
2016-06-12T02:55:25.878Z,1002.96
2016-06-12T02:56:25.865Z,1002.91
2016-06-12T02:57:25.852Z,1002.96
2016-06-12T02:58:25.840Z,1003
2016-06-12T02:59:25.828Z,1002.98
2016-06-12T03:00:25.815Z,1002.99
2016-06-12T03:01:25.802Z,1003
2016-06-12T03:02:25.790Z,1003.02
2016-06-12T03:03:25.777Z,1003.03
2016-06-12T03:04:25.764Z,1003.03
2016-06-12T03:05:26.018Z,1003.04
2016-06-12T03:06:25.755Z,1003.02
2016-06-12T03:07:25.711Z,1003.04
2016-06-12T03:08:25.715Z,1003.07
2016-06-12T03:09:25.702Z,1003.06
2016-06-12T03:10:25.673Z,1003.08
2016-06-12T03:11:25.677Z,1003.07
2016-06-12T03:12:25.664Z,1003.1
2016-06-12T03:13:25.636Z,1003.1
2016-06-12T03:14:25.639Z,1003.1
2016-06-12T03:15:25.611Z,1003.1
2016-06-12T03:16:25.615Z,1003.13
2016-06-12T03:17:25.601Z,1003.18
2016-06-12T03:18:25.573Z,1003.18
2016-06-12T03:19:25.560Z,1003.15
2016-06-12T03:20:25.548Z,1003.14
2016-06-12T03:21:25.567Z,1003.12
2016-06-12T03:22:25.523Z,1003.15
2016-06-12T03:23:25.510Z,1003.16
2016-06-12T03:24:25.498Z,1003.13
2016-06-12T03:25:25.486Z,1003.14
2016-06-12T03:26:25.473Z,1003.1
2016-06-12T03:27:25.460Z,1003.1
2016-06-12T03:28:25.448Z,1003.09
2016-06-12T03:29:25.451Z,1003.08
2016-06-12T03:30:25.424Z,1003.09
2016-06-12T03:31:25.410Z,1003.13
2016-06-12T03:32:25.397Z,1003.12
2016-06-12T03:33:25.386Z,1003.08
2016-06-12T03:34:25.373Z,1003.06
2016-06-12T03:35:25.376Z,1003.09
2016-06-12T03:36:25.941Z,1003.07
2016-06-12T03:37:25.335Z,1003.11
2016-06-12T03:38:25.323Z,1003.08
2016-06-12T03:39:25.310Z,1003.1
2016-06-12T03:40:25.297Z,1003.11
2016-06-12T03:41:25.285Z,1003.08
2016-06-12T03:42:25.273Z,1003.1
2016-06-12T03:43:25.259Z,1003.09
2016-06-12T03:44:25.247Z,1003.08
2016-06-12T03:45:25.219Z,1003.08
2016-06-12T03:46:25.206Z,1003.09
2016-06-12T03:47:25.210Z,1003.1
2016-06-12T03:48:25.182Z,1003.07
2016-06-12T03:49:25.168Z,1003.09
2016-06-12T03:50:25.156Z,1003.11
2016-06-12T03:51:25.144Z,1003.12
2016-06-12T03:52:25.131Z,1003.08
2016-06-12T03:53:25.119Z,1003.06
2016-06-12T03:54:25.106Z,1003.1
2016-06-12T03:55:25.094Z,1003.1
2016-06-12T03:56:25.081Z,1003.11
2016-06-12T03:57:25.068Z,1003.07
2016-06-12T03:58:25.055Z,1003.12
2016-06-12T03:59:25.043Z,1003.08
2016-06-12T04:00:25.031Z,1003.08
2016-06-12T04:01:25.019Z,1003.1
2016-06-12T04:02:25.005Z,1003.05
2016-06-12T04:03:24.992Z,1003.08
2016-06-12T04:04:24.981Z,1003.08
2016-06-12T04:05:24.968Z,1003.11
2016-06-12T04:06:24.955Z,1003.06
2016-06-12T04:07:24.943Z,1003.09
2016-06-12T04:08:24.930Z,1003.12
2016-06-12T04:09:24.902Z,1003.09
2016-06-12T04:10:24.905Z,1003.06
2016-06-12T04:11:24.877Z,1003.08
2016-06-12T04:12:24.864Z,1003.07
2016-06-12T04:13:24.851Z,1003.07
2016-06-12T04:14:24.840Z,1003.14
2016-06-12T04:15:24.826Z,1003.1
2016-06-12T04:16:24.815Z,1003.11
2016-06-12T04:17:24.802Z,1003.14
2016-06-12T04:18:24.789Z,1003.11
2016-06-12T04:19:24.776Z,1003.07
2016-06-12T04:20:24.764Z,1003.12
2016-06-12T04:21:24.783Z,1003.16
2016-06-12T04:22:24.739Z,1003.14
2016-06-12T04:23:24.726Z,1003.15
2016-06-12T04:24:24.714Z,1003.1
2016-06-12T04:25:24.702Z,1003.09
2016-06-12T04:26:24.688Z,1003.12
2016-06-12T04:27:24.676Z,1003.08
2016-06-12T04:28:24.663Z,1003.06
2016-06-12T04:29:24.651Z,1003.09
2016-06-12T04:30:24.639Z,1003.06
2016-06-12T04:31:24.611Z,1003.07
2016-06-12T04:32:24.597Z,1003.1
2016-06-12T04:33:24.585Z,1003.09
2016-06-12T04:34:24.573Z,1003.11
2016-06-12T04:35:24.560Z,1003.11
2016-06-12T04:36:24.547Z,1003.13
2016-06-12T04:37:24.535Z,1003.15
2016-06-12T04:38:24.523Z,1003.14
2016-06-12T04:39:24.510Z,1003.15
2016-06-12T04:40:24.497Z,1003.16
2016-06-12T04:41:24.485Z,1003.15
2016-06-12T04:42:24.613Z,1003.1
2016-06-12T04:43:24.476Z,1003.12
2016-06-12T04:44:24.447Z,1003.12
2016-06-12T04:45:24.435Z,1003.12
2016-06-12T04:46:24.422Z,1003.15
2016-06-12T04:47:24.410Z,1003.14
2016-06-12T04:48:24.397Z,1003.12
2016-06-12T04:49:24.384Z,1003.17
2016-06-12T04:50:24.622Z,1003.12
2016-06-12T04:51:24.672Z,1003.12
2016-06-12T04:52:24.394Z,1003.15
2016-06-12T04:53:24.318Z,1003.14
2016-06-12T04:54:24.321Z,1003.15
2016-06-12T04:55:24.294Z,1003.15
2016-06-12T04:56:24.297Z,1003.14
2016-06-12T04:57:24.268Z,1003.17
2016-06-12T04:58:24.615Z,1003.19
2016-06-12T04:59:24.243Z,1003.17
2016-06-12T05:00:24.231Z,1003.14
2016-06-12T05:01:24.218Z,1003.17
2016-06-12T05:02:24.206Z,1003.18
2016-06-12T05:03:24.193Z,1003.14
2016-06-12T05:04:24.180Z,1003.16
2016-06-12T05:05:24.168Z,1003.17
2016-06-12T05:06:25.078Z,1003.14
2016-06-12T05:07:24.143Z,1003.16
2016-06-12T05:08:24.130Z,1003.2
2016-06-12T05:09:24.117Z,1003.18
2016-06-12T05:10:24.106Z,1003.18
2016-06-12T05:11:24.093Z,1003.16
2016-06-12T05:12:24.064Z,1003.18
2016-06-12T05:13:24.052Z,1003.18
2016-06-12T05:14:24.649Z,1003.12
2016-06-12T05:15:24.042Z,1003.13
2016-06-12T05:16:24.014Z,1003.11
2016-06-12T05:17:24.017Z,1003.16
2016-06-12T05:18:23.989Z,1003.1
2016-06-12T05:19:23.977Z,1003.09
2016-06-12T05:20:23.964Z,1003.07
2016-06-12T05:21:23.951Z,1003.08
2016-06-12T05:22:23.939Z,1003.11
2016-06-12T05:23:23.927Z,1003.11
2016-06-12T05:24:23.913Z,1003.05
2016-06-12T05:25:23.902Z,1003.04
2016-06-12T05:26:23.888Z,1003.04
2016-06-12T05:27:23.876Z,1003.06
2016-06-12T05:28:23.864Z,1003.06
2016-06-12T05:29:23.851Z,1003.08
2016-06-12T05:30:23.838Z,1003.11
2016-06-12T05:31:23.827Z,1003.07
2016-06-12T05:32:23.813Z,1003.13
2016-06-12T05:33:23.802Z,1003.12
2016-06-12T05:34:23.772Z,1003.09
2016-06-12T05:35:23.776Z,1003.08
2016-06-12T05:36:24.372Z,1003.07
2016-06-12T05:37:23.735Z,1003.08
2016-06-12T05:38:23.723Z,1003.06
2016-06-12T05:39:23.726Z,1003.06
2016-06-12T05:40:23.698Z,1003.05
2016-06-12T05:41:23.685Z,1003.1
2016-06-12T05:42:23.672Z,1003.1
2016-06-12T05:43:23.660Z,1003.09
2016-06-12T05:44:23.663Z,1003.05
2016-06-12T05:45:23.634Z,1003.07
2016-06-12T05:46:23.622Z,1003.05
2016-06-12T05:47:23.609Z,1003.07
2016-06-12T05:48:23.597Z,1003.07
2016-06-12T05:49:23.584Z,1003.08
2016-06-12T05:50:23.571Z,1003.08
2016-06-12T05:51:23.560Z,1003.1
2016-06-12T05:52:23.594Z,1003.1
2016-06-12T05:53:23.519Z,1003.11
2016-06-12T05:54:23.506Z,1003.1
2016-06-12T05:55:23.494Z,1003.09
2016-06-12T05:56:23.497Z,1003.1
2016-06-12T05:57:23.468Z,1003.11
2016-06-12T05:58:23.472Z,1003.09
2016-06-12T05:59:23.443Z,1003.09
2016-06-12T06:00:23.430Z,1003.12
2016-06-12T06:01:23.419Z,1003.07
2016-06-12T06:02:23.405Z,1003.08
2016-06-12T06:03:23.394Z,1003.07
2016-06-12T06:04:23.380Z,1003.1
2016-06-12T06:05:23.368Z,1003.04
2016-06-12T06:06:23.355Z,1003.04
2016-06-12T06:07:23.343Z,1003.03
2016-06-12T06:08:23.330Z,1003.05
2016-06-12T06:09:23.318Z,1003.05
2016-06-12T06:10:23.305Z,1003.08
2016-06-12T06:11:23.293Z,1003.07
2016-06-12T06:12:23.280Z,1003.09
2016-06-12T06:13:23.267Z,1003.08
2016-06-12T06:14:23.239Z,1003.04
2016-06-12T06:15:23.227Z,1003.09
2016-06-12T06:16:23.214Z,1003.03
2016-06-12T06:17:23.201Z,1003.02
2016-06-12T06:18:23.190Z,1003.02
2016-06-12T06:19:23.177Z,1003.06
2016-06-12T06:20:23.164Z,1003.06
2016-06-12T06:21:23.963Z,1003.04
2016-06-12T06:22:23.139Z,1003.09
2016-06-12T06:23:23.126Z,1003.06
2016-06-12T06:24:23.114Z,1003.06
2016-06-12T06:25:23.101Z,1003.08
2016-06-12T06:26:23.105Z,1003.13
2016-06-12T06:27:23.076Z,1003.14
2016-06-12T06:28:23.063Z,1003.09
2016-06-12T06:29:23.052Z,1003.12
2016-06-12T06:30:23.039Z,1003.11
2016-06-12T06:31:23.026Z,1003.13
2016-06-12T06:32:23.013Z,1003.15
2016-06-12T06:33:23.001Z,1003.11
2016-06-12T06:34:22.989Z,1003.11
2016-06-12T06:35:22.959Z,1003.13
2016-06-12T06:36:23.088Z,1003.15
2016-06-12T06:37:22.951Z,1003.11
2016-06-12T06:38:22.922Z,1003.11
2016-06-12T06:39:22.910Z,1003.07
2016-06-12T06:40:22.898Z,1003.09
2016-06-12T06:41:22.886Z,1003.1
2016-06-12T06:42:22.872Z,1003.07
2016-06-12T06:43:22.860Z,1003.09
2016-06-12T06:44:22.847Z,1003.06
2016-06-12T06:45:22.835Z,1003.09
2016-06-12T06:46:22.822Z,1003.02
2016-06-12T06:47:22.810Z,1003.04
2016-06-12T06:48:22.797Z,1003.03
2016-06-12T06:49:22.784Z,1003.01
2016-06-12T06:50:22.772Z,1003.02
2016-06-12T06:51:22.759Z,1002.99
2016-06-12T06:52:22.747Z,1002.99
2016-06-12T06:53:22.734Z,1002.99
2016-06-12T06:54:22.721Z,1002.94
2016-06-12T06:55:22.709Z,1002.98
2016-06-12T06:56:22.681Z,1002.96
2016-06-12T06:57:22.669Z,1002.95
2016-06-12T06:58:22.656Z,1002.95
2016-06-12T06:59:22.643Z,1002.97
2016-06-12T07:00:22.631Z,1002.95
2016-06-12T07:01:22.618Z,1002.95
2016-06-12T07:02:22.606Z,1002.93
2016-06-12T07:03:22.593Z,1002.92
2016-06-12T07:04:22.581Z,1002.96
2016-06-12T07:05:22.568Z,1002.95
2016-06-12T07:06:22.555Z,1002.97
2016-06-12T07:07:22.544Z,1003.02
2016-06-12T07:08:22.531Z,1002.98
2016-06-12T07:09:22.518Z,1002.99
2016-06-12T07:10:22.505Z,1002.99
2016-06-12T07:11:22.493Z,1002.98
2016-06-12T07:12:22.481Z,1002.97
2016-06-12T07:13:22.468Z,1002.96
2016-06-12T07:14:22.454Z,1002.98
2016-06-12T07:15:22.427Z,1002.95
2016-06-12T07:16:22.414Z,1002.99
2016-06-12T07:17:22.402Z,1002.98
2016-06-12T07:18:22.389Z,1002.97
2016-06-12T07:19:22.377Z,1002.97
2016-06-12T07:20:22.364Z,1002.96
2016-06-12T07:21:22.820Z,1002.98
2016-06-12T07:22:22.479Z,1002.99
2016-06-12T07:23:22.327Z,1002.99
2016-06-12T07:24:22.314Z,1002.99
2016-06-12T07:25:22.301Z,1002.97
2016-06-12T07:26:22.289Z,1002.95
2016-06-12T07:27:22.276Z,1002.93
2016-06-12T07:28:22.263Z,1002.92
2016-06-12T07:29:22.251Z,1002.97
2016-06-12T07:30:22.239Z,1003
2016-06-12T07:31:22.226Z,1002.97
2016-06-12T07:32:22.213Z,1002.95
2016-06-12T07:33:22.201Z,1002.96
2016-06-12T07:34:22.188Z,1002.96
2016-06-12T07:35:22.176Z,1003.02
2016-06-12T07:36:22.147Z,1002.97
2016-06-12T07:37:22.135Z,1002.98
2016-06-12T07:38:22.123Z,1002.96
2016-06-12T07:39:22.110Z,1003.01
2016-06-12T07:40:22.098Z,1002.96
2016-06-12T07:41:22.085Z,1002.97
2016-06-12T07:42:22.073Z,1002.98
2016-06-12T07:43:22.060Z,1002.93
2016-06-12T07:44:22.047Z,1002.96
2016-06-12T07:45:22.035Z,1002.93
2016-06-12T07:46:22.022Z,1002.92
2016-06-12T07:47:22.009Z,1002.95
2016-06-12T07:48:21.997Z,1003
2016-06-12T07:49:21.984Z,1002.95
2016-06-12T07:50:21.972Z,1002.94
2016-06-12T07:51:22.162Z,1002.98
2016-06-12T07:52:22.103Z,1002.91
2016-06-12T07:53:21.935Z,1002.93
2016-06-12T07:54:21.922Z,1002.94
2016-06-12T07:55:21.894Z,1002.97
2016-06-12T07:56:21.897Z,1002.98
2016-06-12T07:57:21.869Z,1002.95
2016-06-12T07:58:21.856Z,1002.94
2016-06-12T07:59:21.843Z,1002.93
2016-06-12T08:00:21.831Z,1002.92
2016-06-12T08:01:21.881Z,1002.9
2016-06-12T08:02:21.806Z,1002.92
2016-06-12T08:03:21.793Z,1002.95
2016-06-12T08:04:21.781Z,1002.95
2016-06-12T08:05:21.768Z,1002.97
2016-06-12T08:06:21.755Z,1002.96
2016-06-12T08:07:21.743Z,1002.94
2016-06-12T08:08:21.730Z,1002.96
2016-06-12T08:09:21.921Z,1002.98
2016-06-12T08:10:21.705Z,1002.98
2016-06-12T08:11:21.693Z,1002.93
2016-06-12T08:12:21.680Z,1002.94
2016-06-12T08:13:21.668Z,1002.94
2016-06-12T08:14:21.655Z,1002.95
2016-06-12T08:15:21.642Z,1002.96
2016-06-12T08:16:21.630Z,1002.94
2016-06-12T08:17:22.070Z,1002.93
2016-06-12T08:18:21.604Z,1002.91
2016-06-12T08:19:21.577Z,1002.93
2016-06-12T08:20:21.564Z,1002.89
2016-06-12T08:21:21.552Z,1002.9
2016-06-12T08:22:21.539Z,1002.89
2016-06-12T08:23:21.527Z,1002.89
2016-06-12T08:24:21.514Z,1002.89
2016-06-12T08:25:21.908Z,1002.92
2016-06-12T08:26:21.490Z,1002.88
2016-06-12T08:27:21.476Z,1002.91
2016-06-12T08:28:21.464Z,1002.91
2016-06-12T08:29:21.452Z,1002.88
2016-06-12T08:30:21.438Z,1002.86
2016-06-12T08:31:21.427Z,1002.87
2016-06-12T08:32:21.413Z,1002.84
2016-06-12T08:33:21.947Z,1002.84
2016-06-12T08:34:21.389Z,1002.84
2016-06-12T08:35:21.375Z,1002.83
2016-06-12T08:36:21.364Z,1002.82
2016-06-12T08:37:21.351Z,1002.85
2016-06-12T08:38:21.338Z,1002.82
2016-06-12T08:39:21.326Z,1002.83
2016-06-12T08:40:21.313Z,1002.85
2016-06-12T08:41:21.941Z,1002.87
2016-06-12T08:42:21.289Z,1002.82
2016-06-12T08:43:21.261Z,1002.86
2016-06-12T08:44:21.263Z,1002.87
2016-06-12T08:45:21.251Z,1002.87
2016-06-12T08:46:21.237Z,1002.92
2016-06-12T08:47:21.209Z,1002.85
2016-06-12T08:48:21.197Z,1002.87
2016-06-12T08:49:21.232Z,1002.88
2016-06-12T08:50:21.172Z,1002.87
2016-06-12T08:51:21.160Z,1002.86
2016-06-12T08:52:21.334Z,1002.8
2016-06-12T08:53:21.134Z,1002.83
2016-06-12T08:54:21.123Z,1002.86
2016-06-12T08:55:21.110Z,1002.85
2016-06-12T08:56:21.096Z,1002.84
2016-06-12T08:57:22.085Z,1002.82
2016-06-12T08:58:21.072Z,1002.84
2016-06-12T08:59:21.060Z,1002.81
2016-06-12T09:00:21.046Z,1002.82
2016-06-12T09:01:21.034Z,1002.82
2016-06-12T09:02:21.022Z,1002.84
2016-06-12T09:03:20.993Z,1002.77
2016-06-12T09:04:20.981Z,1002.8
2016-06-12T09:05:21.281Z,1002.82
2016-06-12T09:06:20.956Z,1002.86
2016-06-12T09:07:20.943Z,1002.84
2016-06-12T09:08:20.931Z,1002.84
2016-06-12T09:09:20.918Z,1002.79
2016-06-12T09:10:20.906Z,1002.82
2016-06-12T09:11:20.893Z,1002.82
2016-06-12T09:12:20.880Z,1002.81
2016-06-12T09:13:22.117Z,1002.84
2016-06-12T09:14:20.857Z,1002.81
2016-06-12T09:15:20.884Z,1002.84
2016-06-12T09:16:20.912Z,1002.8
2016-06-12T09:17:20.941Z,1002.82
2016-06-12T09:18:20.969Z,1002.83
2016-06-12T09:19:20.996Z,1002.84
2016-06-12T09:20:20.999Z,1002.81
2016-06-12T09:21:21.000Z,1002.83
2016-06-12T09:22:21.424Z,1002.87
2016-06-12T09:23:21.005Z,1002.81
2016-06-12T09:24:20.991Z,1002.85
2016-06-12T09:25:20.983Z,1002.82
2016-06-12T09:26:20.975Z,1002.88
2016-06-12T09:27:20.968Z,1002.82
2016-06-12T09:28:20.961Z,1002.85
2016-06-12T09:29:20.954Z,1002.83
2016-06-12T09:30:20.943Z,1002.86
2016-06-12T09:31:20.931Z,1002.85
2016-06-12T09:32:20.922Z,1002.88
2016-06-12T09:33:20.910Z,1002.85
2016-06-12T09:34:20.899Z,1002.82
2016-06-12T09:35:20.888Z,1002.83
2016-06-12T09:36:20.876Z,1002.83
2016-06-12T09:37:20.865Z,1002.83
2016-06-12T09:38:20.852Z,1002.8
2016-06-12T09:39:20.841Z,1002.77
2016-06-12T09:40:20.829Z,1002.77
2016-06-12T09:41:20.816Z,1002.8
2016-06-12T09:42:20.804Z,1002.79
2016-06-12T09:43:20.792Z,1002.72
2016-06-12T09:44:20.780Z,1002.75
2016-06-12T09:45:20.768Z,1002.8
2016-06-12T09:46:20.755Z,1002.74
2016-06-12T09:47:20.742Z,1002.8
2016-06-12T09:48:20.730Z,1002.75
2016-06-12T09:49:20.717Z,1002.76
2016-06-12T09:50:20.689Z,1002.77
2016-06-12T09:51:20.677Z,1002.78
2016-06-12T09:52:20.664Z,1002.78
2016-06-12T09:53:20.667Z,1002.75
2016-06-12T09:54:20.639Z,1002.76
2016-06-12T09:55:20.627Z,1002.78
2016-06-12T09:56:20.613Z,1002.74
2016-06-12T09:57:20.600Z,1002.78
2016-06-12T09:58:20.589Z,1002.77
2016-06-12T09:59:20.576Z,1002.79
2016-06-12T10:00:20.564Z,1002.76
2016-06-12T10:01:20.551Z,1002.76
2016-06-12T10:02:20.538Z,1002.75
2016-06-12T10:03:20.526Z,1002.77
2016-06-12T10:04:20.513Z,1002.77
2016-06-12T10:05:20.500Z,1002.78
2016-06-12T10:06:20.489Z,1002.79
2016-06-12T10:07:20.475Z,1002.83
2016-06-12T10:08:20.463Z,1002.85
2016-06-12T10:09:20.451Z,1002.79
2016-06-12T10:10:20.438Z,1002.76
2016-06-12T10:11:20.425Z,1002.78
2016-06-12T10:12:20.413Z,1002.76
2016-06-12T10:13:20.385Z,1002.78
2016-06-12T10:14:20.372Z,1002.79
2016-06-12T10:15:20.360Z,1002.81
2016-06-12T10:16:20.347Z,1002.78
2016-06-12T10:17:20.334Z,1002.78
2016-06-12T10:18:20.322Z,1002.76
2016-06-12T10:19:20.310Z,1002.75
2016-06-12T10:20:20.296Z,1002.82
2016-06-12T10:21:20.284Z,1002.79
2016-06-12T10:22:20.272Z,1002.75
2016-06-12T10:23:20.619Z,1002.77
2016-06-12T10:24:20.247Z,1002.81
2016-06-12T10:25:20.234Z,1002.78
2016-06-12T10:26:20.222Z,1002.73
2016-06-12T10:27:20.209Z,1002.74
2016-06-12T10:28:20.212Z,1002.69
2016-06-12T10:29:20.184Z,1002.73
2016-06-12T10:30:25.249Z,1002.72
2016-06-12T10:31:20.160Z,1002.73
2016-06-12T10:32:20.147Z,1002.71
2016-06-12T10:33:20.134Z,1002.71
2016-06-12T10:34:20.121Z,1002.68
2016-06-12T10:35:20.109Z,1002.68
2016-06-12T10:36:20.096Z,1002.71
2016-06-12T10:37:20.068Z,1002.67
2016-06-12T10:38:20.056Z,1002.68
2016-06-12T10:39:20.043Z,1002.7
2016-06-12T10:40:20.030Z,1002.63
2016-06-12T10:41:20.018Z,1002.68
2016-06-12T10:42:20.005Z,1002.66
2016-06-12T10:43:19.992Z,1002.65
2016-06-12T10:44:19.980Z,1002.68
2016-06-12T10:45:19.967Z,1002.68
2016-06-12T10:46:19.955Z,1002.7
2016-06-12T10:47:19.942Z,1002.68
2016-06-12T10:48:19.930Z,1002.67
2016-06-12T10:49:19.933Z,1002.63
2016-06-12T10:50:19.904Z,1002.66
2016-06-12T10:51:19.892Z,1002.65
2016-06-12T10:52:19.880Z,1002.64
2016-06-12T10:53:19.866Z,1002.62
2016-06-12T10:54:19.855Z,1002.67
2016-06-12T10:55:19.842Z,1002.62
2016-06-12T10:56:19.829Z,1002.56
2016-06-12T10:57:19.817Z,1002.59
2016-06-12T10:58:19.805Z,1002.56
2016-06-12T10:59:19.791Z,1002.52
2016-06-12T11:00:19.779Z,1002.53
2016-06-12T11:01:19.766Z,1002.49
2016-06-12T11:02:19.755Z,1002.5
2016-06-12T11:03:19.742Z,1002.47
2016-06-12T11:04:19.728Z,1002.41
2016-06-12T11:05:19.717Z,1002.44
2016-06-12T11:06:19.688Z,1002.42
2016-06-12T11:07:20.487Z,1002.42
2016-06-12T11:08:20.194Z,1002.43
2016-06-12T11:09:19.651Z,1002.37
2016-06-12T11:10:19.638Z,1002.4
2016-06-12T11:11:19.625Z,1002.4
2016-06-12T11:12:19.613Z,1002.35
2016-06-12T11:13:19.600Z,1002.32
2016-06-12T11:14:19.588Z,1002.31
2016-06-12T11:15:19.576Z,1002.29
2016-06-12T11:16:19.563Z,1002.28
2016-06-12T11:17:19.551Z,1002.3
2016-06-12T11:18:19.537Z,1002.28
2016-06-12T11:19:19.525Z,1002.31
2016-06-12T11:20:19.513Z,1002.24
2016-06-12T11:21:19.500Z,1002.29
2016-06-12T11:22:19.487Z,1002.31
2016-06-12T11:23:19.506Z,1002.3
2016-06-12T11:24:19.462Z,1002.3
2016-06-12T11:25:19.450Z,1002.25
2016-06-12T11:26:19.437Z,1002.24
2016-06-12T11:27:19.424Z,1002.22
2016-06-12T11:28:19.412Z,1002.21
2016-06-12T11:29:19.384Z,1002.22
2016-06-12T11:30:19.386Z,1002.19
2016-06-12T11:31:19.358Z,1002.17
2016-06-12T11:32:19.347Z,1002.19
2016-06-12T11:33:19.334Z,1002.14
2016-06-12T11:34:19.337Z,1002.11
2016-06-12T11:35:19.324Z,1002.1
2016-06-12T11:36:19.296Z,1002.07
2016-06-12T11:37:19.972Z,1002.01
2016-06-12T11:38:19.272Z,1002
2016-06-12T11:39:19.259Z,1002.02
2016-06-12T11:40:19.247Z,1002.04
2016-06-12T11:41:19.233Z,1002.02
2016-06-12T11:42:19.220Z,1001.97
2016-06-12T11:43:19.208Z,1002.03
2016-06-12T11:44:19.195Z,1002.01
2016-06-12T11:45:19.183Z,1002.02
2016-06-12T11:46:19.171Z,1002
2016-06-12T11:47:19.158Z,1002.06
2016-06-12T11:48:19.146Z,1002.02
2016-06-12T11:49:19.133Z,1002
2016-06-12T11:50:19.105Z,1002.02
2016-06-12T11:51:19.092Z,1001.98
2016-06-12T11:52:19.095Z,1001.97
2016-06-12T11:53:19.083Z,1001.99
2016-06-12T11:54:19.054Z,1002
2016-06-12T11:55:19.043Z,1001.95
2016-06-12T11:56:19.030Z,1001.99
2016-06-12T11:57:19.016Z,1001.94
2016-06-12T11:58:19.004Z,1001.91
2016-06-12T11:59:18.992Z,1001.89
2016-06-12T12:00:19.636Z,1001.93
2016-06-12T12:01:18.967Z,1001.92
2016-06-12T12:02:18.954Z,1001.9
2016-06-12T12:03:18.942Z,1001.88
2016-06-12T12:04:18.929Z,1001.87
2016-06-12T12:05:18.916Z,1001.92
2016-06-12T12:06:18.904Z,1001.91
2016-06-12T12:07:18.922Z,1001.92
2016-06-12T12:08:19.972Z,1001.89